sensor_id;sensor_type;location;lat;lon;timestamp;pressure;altitude;pressure_sealevel;temperature;humidity
69411;BME280;56604;48.652;9.194;2023-08-12T00:00:38;96570.91;;;21.30;69.56
69411;BME280;56604;48.652;9.194;2023-08-12T00:03:04;96576.53;;;21.20;70.15
69411;BME280;56604;48.652;9.194;2023-08-12T00:05:29;96583.59;;;21.16;71.10
69411;BME280;56604;48.652;9.194;2023-08-12T00:07:55;96574.59;;;21.11;71.39
69411;BME280;56604;48.652;9.194;2023-08-12T00:10:20;96567.47;;;20.98;71.53
69411;BME280;56604;48.652;9.194;2023-08-12T00:12:46;96562.44;;;20.97;71.67
69411;BME280;56604;48.652;9.194;2023-08-12T00:15:12;96563.69;;;20.99;71.67
69411;BME280;56604;48.652;9.194;2023-08-12T00:17:38;96568.72;;;20.92;72.15
69411;BME280;56604;48.652;9.194;2023-08-12T00:20:06;96561.66;;;20.96;72.19
69411;BME280;56604;48.652;9.194;2023-08-12T00:22:34;96552.06;;;20.95;72.09
69411;BME280;56604;48.652;9.194;2023-08-12T00:24:59;96555.81;;;20.94;72.45
69411;BME280;56604;48.652;9.194;2023-08-12T00:27:24;96555.34;;;20.92;72.47
69411;BME280;56604;48.652;9.194;2023-08-12T00:29:49;96546.84;;;20.90;72.65
69411;BME280;56604;48.652;9.194;2023-08-12T00:32:15;96542.59;;;20.89;72.56
69411;BME280;56604;48.652;9.194;2023-08-12T00:34:40;96539.31;;;20.92;72.44
69411;BME280;56604;48.652;9.194;2023-08-12T00:37:05;96544.16;;;20.90;72.18
69411;BME280;56604;48.652;9.194;2023-08-12T00:39:31;96539.44;;;20.87;73.13
69411;BME280;56604;48.652;9.194;2023-08-12T00:41:56;96535.66;;;20.88;72.85
69411;BME280;56604;48.652;9.194;2023-08-12T00:44:21;96533.78;;;20.88;73.33
69411;BME280;56604;48.652;9.194;2023-08-12T00:46:49;96523.81;;;20.80;73.54
69411;BME280;56604;48.652;9.194;2023-08-12T00:49:16;96523.03;;;20.80;73.67
69411;BME280;56604;48.652;9.194;2023-08-12T00:51:43;96525.59;;;20.85;73.41
69411;BME280;56604;48.652;9.194;2023-08-12T00:54:13;96522.28;;;20.88;73.77
69411;BME280;56604;48.652;9.194;2023-08-12T00:56:39;96526.56;;;20.89;73.62
69411;BME280;56604;48.652;9.194;2023-08-12T00:59:07;96527.78;;;20.83;73.95
69411;BME280;56604;48.652;9.194;2023-08-12T01:01:40;96526.03;;;20.78;73.67
69411;BME280;56604;48.652;9.194;2023-08-12T01:04:06;96526.94;;;20.74;74.08
69411;BME280;56604;48.652;9.194;2023-08-12T01:06:31;96521.56;;;20.65;73.93
69411;BME280;56604;48.652;9.194;2023-08-12T01:08:57;96516.06;;;20.61;74.24
69411;BME280;56604;48.652;9.194;2023-08-12T01:11:39;96520.91;;;20.59;74.71
69411;BME280;56604;48.652;9.194;2023-08-12T01:14:22;96513.13;;;20.49;74.97
69411;BME280;56604;48.652;9.194;2023-08-12T01:16:53;96507.19;;;20.52;75.01
69411;BME280;56604;48.652;9.194;2023-08-12T01:19:36;96506.09;;;20.53;74.69
69411;BME280;56604;48.652;9.194;2023-08-12T01:22:03;96501.84;;;20.52;75.03
69411;BME280;56604;48.652;9.194;2023-08-12T01:24:40;96499.78;;;20.49;75.05
69411;BME280;56604;48.652;9.194;2023-08-12T01:27:07;96500.84;;;20.48;75.09
69411;BME280;56604;48.652;9.194;2023-08-12T01:29:39;96498.59;;;20.55;74.83
69411;BME280;56604;48.652;9.194;2023-08-12T01:32:14;96499.38;;;20.56;74.89
69411;BME280;56604;48.652;9.194;2023-08-12T01:35:09;96493.69;;;20.57;74.92
69411;BME280;56604;48.652;9.194;2023-08-12T01:37:37;96499.03;;;20.57;74.84
69411;BME280;56604;48.652;9.194;2023-08-12T01:40:05;96483.00;;;20.57;74.47
69411;BME280;56604;48.652;9.194;2023-08-12T01:42:32;96484.41;;;20.55;74.48
69411;BME280;56604;48.652;9.194;2023-08-12T01:44:59;96485.81;;;20.52;74.87
69411;BME280;56604;48.652;9.194;2023-08-12T01:47:26;96484.22;;;20.51;74.40
69411;BME280;56604;48.652;9.194;2023-08-12T01:49:52;96476.09;;;20.56;74.36
69411;BME280;56604;48.652;9.194;2023-08-12T01:52:17;96473.91;;;20.58;73.96
69411;BME280;56604;48.652;9.194;2023-08-12T01:54:42;96485.56;;;20.62;73.61
69411;BME280;56604;48.652;9.194;2023-08-12T01:57:09;96477.41;;;20.67;73.51
69411;BME280;56604;48.652;9.194;2023-08-12T01:59:35;96478.97;;;20.69;73.45
69411;BME280;56604;48.652;9.194;2023-08-12T02:02:01;96475.56;;;20.77;73.19
69411;BME280;56604;48.652;9.194;2023-08-12T02:04:27;96482.03;;;20.84;73.29
69411;BME280;56604;48.652;9.194;2023-08-12T02:06:55;96479.50;;;20.79;73.06
69411;BME280;56604;48.652;9.194;2023-08-12T02:09:21;96478.47;;;20.89;73.07
69411;BME280;56604;48.652;9.194;2023-08-12T02:11:47;96480.03;;;20.90;72.94
69411;BME280;56604;48.652;9.194;2023-08-12T02:14:13;96480.50;;;20.92;73.12
69411;BME280;56604;48.652;9.194;2023-08-12T02:16:38;96482.72;;;20.99;73.35
69411;BME280;56604;48.652;9.194;2023-08-12T02:19:04;96478.00;;;20.96;72.76
69411;BME280;56604;48.652;9.194;2023-08-12T02:21:29;96479.41;;;20.93;73.33
69411;BME280;56604;48.652;9.194;2023-08-12T02:23:54;96469.97;;;20.96;73.07
69411;BME280;56604;48.652;9.194;2023-08-12T02:26:20;96480.50;;;20.92;73.17
69411;BME280;56604;48.652;9.194;2023-08-12T02:28:45;96475.63;;;20.94;73.28
69411;BME280;56604;48.652;9.194;2023-08-12T02:31:11;96478.78;;;20.96;72.99
69411;BME280;56604;48.652;9.194;2023-08-12T02:33:37;96469.03;;;21.00;72.75
69411;BME280;56604;48.652;9.194;2023-08-12T02:36:03;96456.78;;;20.99;72.83
69411;BME280;56604;48.652;9.194;2023-08-12T02:38:28;96465.41;;;20.96;72.60
69411;BME280;56604;48.652;9.194;2023-08-12T02:40:54;96460.88;;;21.05;72.90
69411;BME280;56604;48.652;9.194;2023-08-12T02:43:20;96461.34;;;21.07;72.54
69411;BME280;56604;48.652;9.194;2023-08-12T02:45:45;96457.28;;;21.10;72.83
69411;BME280;56604;48.652;9.194;2023-08-12T02:48:11;96463.88;;;21.04;72.80
69411;BME280;56604;48.652;9.194;2023-08-12T02:50:37;96456.16;;;21.02;73.06
69411;BME280;56604;48.652;9.194;2023-08-12T02:53:04;96459.94;;;21.01;73.26
69411;BME280;56604;48.652;9.194;2023-08-12T02:55:29;96453.63;;;20.97;73.34
69411;BME280;56604;48.652;9.194;2023-08-12T02:57:57;96452.53;;;20.98;73.21
69411;BME280;56604;48.652;9.194;2023-08-12T03:00:22;96451.56;;;20.94;73.10
69411;BME280;56604;48.652;9.194;2023-08-12T03:02:47;96451.09;;;20.92;73.47
69411;BME280;56604;48.652;9.194;2023-08-12T03:05:14;96450.47;;;20.95;73.52
69411;BME280;56604;48.652;9.194;2023-08-12T03:07:39;96452.69;;;21.02;73.19
69411;BME280;56604;48.652;9.194;2023-08-12T03:10:05;96454.09;;;20.99;73.36
69411;BME280;56604;48.652;9.194;2023-08-12T03:12:31;96447.47;;;20.97;73.62
69411;BME280;56604;48.652;9.194;2023-08-12T03:14:56;96446.69;;;20.96;73.47
69411;BME280;56604;48.652;9.194;2023-08-12T03:17:21;96442.91;;;20.97;73.67
69411;BME280;56604;48.652;9.194;2023-08-12T03:19:47;96442.47;;;20.95;73.58
69411;BME280;56604;48.652;9.194;2023-08-12T03:22:12;96444.66;;;20.93;73.86
69411;BME280;56604;48.652;9.194;2023-08-12T03:24:37;96441.97;;;20.93;73.69
69411;BME280;56604;48.652;9.194;2023-08-12T03:27:03;96450.13;;;20.88;74.10
69411;BME280;56604;48.652;9.194;2023-08-12T03:29:28;96452.47;;;20.72;75.06
69411;BME280;56604;48.652;9.194;2023-08-12T03:31:53;96447.91;;;20.73;74.90
69411;BME280;56604;48.652;9.194;2023-08-12T03:34:19;96442.06;;;20.71;75.26
69411;BME280;56604;48.652;9.194;2023-08-12T03:36:44;96446.50;;;20.75;74.95
69411;BME280;56604;48.652;9.194;2023-08-12T03:39:11;96447.28;;;20.76;75.19
69411;BME280;56604;48.652;9.194;2023-08-12T03:41:36;96436.59;;;20.76;74.85
69411;BME280;56604;48.652;9.194;2023-08-12T03:44:01;96435.00;;;20.75;75.16
69411;BME280;56604;48.652;9.194;2023-08-12T03:46:27;96435.78;;;20.66;75.19
69411;BME280;56604;48.652;9.194;2023-08-12T03:48:52;96428.53;;;20.67;74.99
69411;BME280;56604;48.652;9.194;2023-08-12T03:51:18;96427.75;;;20.66;75.32
69411;BME280;56604;48.652;9.194;2023-08-12T03:53:44;96426.50;;;20.73;75.05
69411;BME280;56604;48.652;9.194;2023-08-12T03:56:09;96426.16;;;20.65;74.62
69411;BME280;56604;48.652;9.194;2023-08-12T03:58:34;96427.75;;;20.66;74.70
69411;BME280;56604;48.652;9.194;2023-08-12T04:01:00;96428.53;;;20.67;74.76
69411;BME280;56604;48.652;9.194;2023-08-12T04:03:25;96429.94;;;20.64;74.90
69411;BME280;56604;48.652;9.194;2023-08-12T04:05:51;96431.09;;;20.72;74.62
69411;BME280;56604;48.652;9.194;2023-08-12T04:08:22;96433.91;;;20.76;74.56
69411;BME280;56604;48.652;9.194;2023-08-12T04:10:49;96436.44;;;20.81;74.21
69411;BME280;56604;48.652;9.194;2023-08-12T04:13:15;96436.88;;;20.74;74.47
69411;BME280;56604;48.652;9.194;2023-08-12T04:15:41;96439.13;;;20.81;74.04
69411;BME280;56604;48.652;9.194;2023-08-12T04:18:06;96435.50;;;20.85;74.16
69411;BME280;56604;48.652;9.194;2023-08-12T04:20:32;96439.44;;;20.88;74.21
69411;BME280;56604;48.652;9.194;2023-08-12T04:22:57;96432.53;;;20.87;73.80
69411;BME280;56604;48.652;9.194;2023-08-12T04:25:23;96436.00;;;20.96;73.53
69411;BME280;56604;48.652;9.194;2023-08-12T04:27:49;96432.72;;;21.08;73.02
69411;BME280;56604;48.652;9.194;2023-08-12T04:30:18;96433.19;;;21.01;73.24
69411;BME280;56604;48.652;9.194;2023-08-12T04:32:43;96437.78;;;21.18;72.51
69411;BME280;56604;48.652;9.194;2023-08-12T04:35:10;96425.22;;;21.19;72.49
69411;BME280;56604;48.652;9.194;2023-08-12T04:37:36;96433.25;;;21.27;72.55
69411;BME280;56604;48.652;9.194;2023-08-12T04:40:02;96437.16;;;21.21;72.32
69411;BME280;56604;48.652;9.194;2023-08-12T04:42:30;96445.69;;;21.23;72.00
69411;BME280;56604;48.652;9.194;2023-08-12T04:44:55;96436.53;;;21.24;72.78
69411;BME280;56604;48.652;9.194;2023-08-12T04:47:21;96435.66;;;21.38;72.07
69411;BME280;56604;48.652;9.194;2023-08-12T04:49:47;96436.75;;;21.45;71.41
69411;BME280;56604;48.652;9.194;2023-08-12T04:52:12;96439.91;;;21.47;71.29
69411;BME280;56604;48.652;9.194;2023-08-12T04:54:37;96438.75;;;21.31;72.06
69411;BME280;56604;48.652;9.194;2023-08-12T04:57:03;96428.38;;;21.21;73.07
69411;BME280;56604;48.652;9.194;2023-08-12T04:59:28;96429.78;;;21.27;72.72
69411;BME280;56604;48.652;9.194;2023-08-12T05:01:53;96432.13;;;21.28;71.97
69411;BME280;56604;48.652;9.194;2023-08-12T05:04:19;96432.81;;;21.43;71.33
69411;BME280;56604;48.652;9.194;2023-08-12T05:06:44;96430.31;;;21.38;71.40
69411;BME280;56604;48.652;9.194;2023-08-12T05:09:09;96428.09;;;21.57;70.90
69411;BME280;56604;48.652;9.194;2023-08-12T05:11:35;96433.44;;;21.83;70.07
69411;BME280;56604;48.652;9.194;2023-08-12T05:14:00;96441.94;;;21.50;71.82
69411;BME280;56604;48.652;9.194;2023-08-12T05:16:25;96455.31;;;21.50;71.90
69411;BME280;56604;48.652;9.194;2023-08-12T05:18:51;96467.28;;;21.44;71.92
69411;BME280;56604;48.652;9.194;2023-08-12T05:21:17;96450.44;;;21.61;71.76
69411;BME280;56604;48.652;9.194;2023-08-12T05:23:42;96456.44;;;21.75;71.47
69411;BME280;56604;48.652;9.194;2023-08-12T05:26:08;96460.47;;;22.16;70.15
69411;BME280;56604;48.652;9.194;2023-08-12T05:28:33;96453.56;;;22.71;68.79
69411;BME280;56604;48.652;9.194;2023-08-12T05:30:58;96453.03;;;22.39;68.83
69411;BME280;56604;48.652;9.194;2023-08-12T05:33:24;96452.81;;;21.97;69.93
69411;BME280;56604;48.652;9.194;2023-08-12T05:35:49;96453.25;;;21.91;70.77
69411;BME280;56604;48.652;9.194;2023-08-12T05:38:15;96454.53;;;21.50;71.87
69411;BME280;56604;48.652;9.194;2023-08-12T05:40:41;96455.94;;;21.99;70.30
69411;BME280;56604;48.652;9.194;2023-08-12T05:43:06;96458.91;;;22.24;71.00
69411;BME280;56604;48.652;9.194;2023-08-12T05:45:31;96461.47;;;22.20;71.38
69411;BME280;56604;48.652;9.194;2023-08-12T05:47:57;96466.34;;;21.92;73.04
69411;BME280;56604;48.652;9.194;2023-08-12T05:50:22;96464.63;;;21.70;73.89
69411;BME280;56604;48.652;9.194;2023-08-12T05:52:48;96468.88;;;21.80;73.29
69411;BME280;56604;48.652;9.194;2023-08-12T05:55:13;96473.56;;;21.66;74.42
69411;BME280;56604;48.652;9.194;2023-08-12T05:57:39;96483.03;;;21.54;74.60
69411;BME280;56604;48.652;9.194;2023-08-12T06:00:05;96474.03;;;22.02;73.96
69411;BME280;56604;48.652;9.194;2023-08-12T06:02:31;96462.88;;;22.65;71.88
69411;BME280;56604;48.652;9.194;2023-08-12T06:04:56;96458.50;;;22.60;71.81
69411;BME280;56604;48.652;9.194;2023-08-12T06:07:22;96452.63;;;22.20;72.25
69411;BME280;56604;48.652;9.194;2023-08-12T06:09:49;96449.13;;;22.28;71.74
69411;BME280;56604;48.652;9.194;2023-08-12T06:12:15;96469.00;;;22.18;72.31
69411;BME280;56604;48.652;9.194;2023-08-12T06:14:41;96466.03;;;22.20;72.77
69411;BME280;56604;48.652;9.194;2023-08-12T06:17:06;96455.56;;;22.44;71.77
69411;BME280;56604;48.652;9.194;2023-08-12T06:19:32;96460.28;;;22.48;72.15
69411;BME280;56604;48.652;9.194;2023-08-12T06:21:57;96461.72;;;22.83;70.52
69411;BME280;56604;48.652;9.194;2023-08-12T06:24:23;96448.22;;;23.30;68.32
69411;BME280;56604;48.652;9.194;2023-08-12T06:26:48;96454.97;;;23.37;68.04
69411;BME280;56604;48.652;9.194;2023-08-12T06:29:13;96452.81;;;23.93;66.45
69411;BME280;56604;48.652;9.194;2023-08-12T06:31:40;96450.78;;;24.44;65.04
69411;BME280;56604;48.652;9.194;2023-08-12T06:34:05;96445.81;;;24.34;65.23
69411;BME280;56604;48.652;9.194;2023-08-12T06:36:31;96451.94;;;24.22;64.60
69411;BME280;56604;48.652;9.194;2023-08-12T06:38:56;96455.97;;;23.95;66.18
69411;BME280;56604;48.652;9.194;2023-08-12T06:41:21;96445.88;;;24.83;63.30
69411;BME280;56604;48.652;9.194;2023-08-12T06:43:47;96448.00;;;25.79;61.44
69411;BME280;56604;48.652;9.194;2023-08-12T06:46:12;96453.38;;;26.35;58.44
69411;BME280;56604;48.652;9.194;2023-08-12T06:48:37;96445.28;;;27.85;55.48
69411;BME280;56604;48.652;9.194;2023-08-12T06:51:03;96451.44;;;28.44;51.78
69411;BME280;56604;48.652;9.194;2023-08-12T06:53:35;96448.91;;;29.57;48.73
69411;BME280;56604;48.652;9.194;2023-08-12T06:56:01;96442.03;;;30.72;45.17
69411;BME280;56604;48.652;9.194;2023-08-12T06:58:28;96447.50;;;31.97;42.01
69411;BME280;56604;48.652;9.194;2023-08-12T07:00:53;96456.69;;;31.74;41.07
69411;BME280;56604;48.652;9.194;2023-08-12T07:03:20;96450.81;;;29.57;45.49
69411;BME280;56604;48.652;9.194;2023-08-12T07:05:45;96444.94;;;29.51;45.72
69411;BME280;56604;48.652;9.194;2023-08-12T07:08:11;96447.03;;;28.16;48.80
69411;BME280;56604;48.652;9.194;2023-08-12T07:10:40;96444.31;;;27.77;50.94
69411;BME280;56604;48.652;9.194;2023-08-12T07:13:05;96440.31;;;28.07;51.27
69411;BME280;56604;48.652;9.194;2023-08-12T07:15:31;96436.28;;;30.36;46.73
69411;BME280;56604;48.652;9.194;2023-08-12T07:17:56;96448.25;;;30.73;44.63
69411;BME280;56604;48.652;9.194;2023-08-12T07:20:23;96440.84;;;30.69;45.30
69411;BME280;56604;48.652;9.194;2023-08-12T07:22:49;96443.81;;;31.57;43.59
69411;BME280;56604;48.652;9.194;2023-08-12T07:25:14;96449.84;;;31.32;44.11
69411;BME280;56604;48.652;9.194;2023-08-12T07:27:39;96438.56;;;30.75;45.59
69411;BME280;56604;48.652;9.194;2023-08-12T07:30:05;96441.50;;;31.66;43.09
69411;BME280;56604;48.652;9.194;2023-08-12T07:32:31;96445.63;;;32.22;41.97
69411;BME280;56604;48.652;9.194;2023-08-12T07:34:56;96436.28;;;33.45;39.92
69411;BME280;56604;48.652;9.194;2023-08-12T07:37:21;96433.66;;;34.15;38.39
69411;BME280;56604;48.652;9.194;2023-08-12T07:39:46;96437.78;;;33.68;38.20
69411;BME280;56604;48.652;9.194;2023-08-12T07:42:12;96443.38;;;32.82;40.02
69411;BME280;56604;48.652;9.194;2023-08-12T07:44:37;96440.81;;;33.91;39.26
69411;BME280;56604;48.652;9.194;2023-08-12T07:47:03;96439.19;;;34.71;37.67
69411;BME280;56604;48.652;9.194;2023-08-12T07:49:28;96426.94;;;34.86;38.33
69411;BME280;56604;48.652;9.194;2023-08-12T07:51:53;96445.56;;;32.04;41.87
69411;BME280;56604;48.652;9.194;2023-08-12T07:54:20;96433.75;;;33.97;38.85
69411;BME280;56604;48.652;9.194;2023-08-12T07:56:45;96432.34;;;34.93;35.93
69411;BME280;56604;48.652;9.194;2023-08-12T07:59:11;96444.09;;;33.29;38.22
69411;BME280;56604;48.652;9.194;2023-08-12T08:01:36;96450.28;;;32.29;40.87
69411;BME280;56604;48.652;9.194;2023-08-12T08:04:01;96446.97;;;31.70;43.25
69411;BME280;56604;48.652;9.194;2023-08-12T08:06:28;96443.19;;;33.82;38.05
69411;BME280;56604;48.652;9.194;2023-08-12T08:08:54;96440.19;;;33.30;38.82
69411;BME280;56604;48.652;9.194;2023-08-12T08:11:20;96447.13;;;33.67;39.27
69411;BME280;56604;48.652;9.194;2023-08-12T08:13:46;96437.91;;;33.10;40.62
69411;BME280;56604;48.652;9.194;2023-08-12T08:16:11;96443.03;;;31.60;42.34
69411;BME280;56604;48.652;9.194;2023-08-12T08:18:36;96441.91;;;31.68;43.59
69411;BME280;56604;48.652;9.194;2023-08-12T08:21:01;96441.28;;;31.30;43.14
69411;BME280;56604;48.652;9.194;2023-08-12T08:23:27;96444.53;;;31.50;42.27
69411;BME280;56604;48.652;9.194;2023-08-12T08:25:52;96444.22;;;31.66;42.72
69411;BME280;56604;48.652;9.194;2023-08-12T08:28:17;96441.13;;;31.68;41.74
69411;BME280;56604;48.652;9.194;2023-08-12T08:30:43;96440.88;;;31.98;41.61
69411;BME280;56604;48.652;9.194;2023-08-12T08:33:08;96448.72;;;32.24;41.30
69411;BME280;56604;48.652;9.194;2023-08-12T08:35:34;96446.47;;;32.84;39.42
69411;BME280;56604;48.652;9.194;2023-08-12T08:37:59;96443.38;;;32.67;39.44
69411;BME280;56604;48.652;9.194;2023-08-12T08:40:25;96447.94;;;33.49;36.80
69411;BME280;56604;48.652;9.194;2023-08-12T08:42:52;96447.03;;;33.92;37.23
69411;BME280;56604;48.652;9.194;2023-08-12T08:45:21;96448.75;;;33.35;36.64
69411;BME280;56604;48.652;9.194;2023-08-12T08:47:47;96447.97;;;33.42;37.43
69411;BME280;56604;48.652;9.194;2023-08-12T08:50:14;96461.78;;;31.83;39.99
69411;BME280;56604;48.652;9.194;2023-08-12T08:52:40;96454.16;;;32.24;39.37
69411;BME280;56604;48.652;9.194;2023-08-12T08:55:07;96445.09;;;33.89;35.62
69411;BME280;56604;48.652;9.194;2023-08-12T08:57:33;96451.53;;;32.96;38.43
69411;BME280;56604;48.652;9.194;2023-08-12T08:59:58;96447.22;;;34.92;36.62
69411;BME280;56604;48.652;9.194;2023-08-12T09:02:24;96450.19;;;34.64;34.65
69411;BME280;56604;48.652;9.194;2023-08-12T09:04:50;96461.25;;;32.97;37.62
69411;BME280;56604;48.652;9.194;2023-08-12T09:07:15;96458.13;;;32.95;37.64
69411;BME280;56604;48.652;9.194;2023-08-12T09:09:46;96458.91;;;32.56;38.78
69411;BME280;56604;48.652;9.194;2023-08-12T09:12:14;96470.50;;;32.32;38.43
69411;BME280;56604;48.652;9.194;2023-08-12T09:14:41;96461.78;;;31.87;40.08
69411;BME280;56604;48.652;9.194;2023-08-12T09:17:07;96455.00;;;32.46;38.92
69411;BME280;56604;48.652;9.194;2023-08-12T09:19:32;96467.34;;;32.15;38.83
69411;BME280;56604;48.652;9.194;2023-08-12T09:21:58;96454.56;;;33.59;36.98
69411;BME280;56604;48.652;9.194;2023-08-12T09:24:26;96458.84;;;33.49;36.70
69411;BME280;56604;48.652;9.194;2023-08-12T09:26:52;96460.19;;;31.78;39.08
69411;BME280;56604;48.652;9.194;2023-08-12T09:29:18;96457.75;;;31.48;39.78
69411;BME280;56604;48.652;9.194;2023-08-12T09:31:43;96455.31;;;32.27;39.67
69411;BME280;56604;48.652;9.194;2023-08-12T09:34:08;96450.69;;;31.36;40.82
69411;BME280;56604;48.652;9.194;2023-08-12T09:36:34;96456.44;;;32.01;39.78
69411;BME280;56604;48.652;9.194;2023-08-12T09:39:00;96447.53;;;32.18;41.85
69411;BME280;56604;48.652;9.194;2023-08-12T09:41:28;96446.47;;;32.77;39.19
69411;BME280;56604;48.652;9.194;2023-08-12T09:43:55;96454.69;;;31.57;40.77
69411;BME280;56604;48.652;9.194;2023-08-12T09:46:22;96441.78;;;33.09;38.81
69411;BME280;56604;48.652;9.194;2023-08-12T09:48:50;96447.63;;;33.11;39.62
69411;BME280;56604;48.652;9.194;2023-08-12T09:51:16;96430.50;;;33.14;39.46
69411;BME280;56604;48.652;9.194;2023-08-12T09:53:42;96420.00;;;32.81;39.21
69411;BME280;56604;48.652;9.194;2023-08-12T09:56:11;96417.69;;;32.65;40.18
69411;BME280;56604;48.652;9.194;2023-08-12T09:58:37;96425.25;;;33.81;39.43
69411;BME280;56604;48.652;9.194;2023-08-12T10:01:05;96411.00;;;34.78;37.13
69411;BME280;56604;48.652;9.194;2023-08-12T10:03:33;96408.81;;;33.95;36.90
69411;BME280;56604;48.652;9.194;2023-08-12T10:06:00;96408.34;;;32.69;38.61
69411;BME280;56604;48.652;9.194;2023-08-12T10:08:28;96402.13;;;32.58;38.88
69411;BME280;56604;48.652;9.194;2023-08-12T10:10:54;96405.84;;;31.86;40.19
69411;BME280;56604;48.652;9.194;2023-08-12T10:13:21;96391.97;;;32.37;40.43
69411;BME280;56604;48.652;9.194;2023-08-12T10:15:47;96403.44;;;31.66;40.76
69411;BME280;56604;48.652;9.194;2023-08-12T10:18:13;96413.63;;;31.10;42.82
69411;BME280;56604;48.652;9.194;2023-08-12T10:20:40;96414.13;;;31.30;42.41
69411;BME280;56604;48.652;9.194;2023-08-12T10:23:05;96414.28;;;31.59;41.22
69411;BME280;56604;48.652;9.194;2023-08-12T10:25:32;96405.75;;;31.61;41.86
69411;BME280;56604;48.652;9.194;2023-08-12T10:28:01;96400.66;;;30.86;43.21
69411;BME280;56604;48.652;9.194;2023-08-12T10:30:30;96409.53;;;31.42;43.31
69411;BME280;56604;48.652;9.194;2023-08-12T10:32:58;96404.38;;;32.13;40.78
69411;BME280;56604;48.652;9.194;2023-08-12T10:35:23;96410.06;;;31.65;42.71
69411;BME280;56604;48.652;9.194;2023-08-12T10:38:05;96406.34;;;32.38;42.45
69411;BME280;56604;48.652;9.194;2023-08-12T10:40:31;96407.19;;;32.60;40.20
69411;BME280;56604;48.652;9.194;2023-08-12T10:42:56;96404.41;;;32.31;41.78
69411;BME280;56604;48.652;9.194;2023-08-12T10:45:21;96409.50;;;33.08;39.82
69411;BME280;56604;48.652;9.194;2023-08-12T10:50:25;96420.00;;;33.13;41.59
69411;BME280;56604;48.652;9.194;2023-08-12T10:52:53;96417.63;;;33.36;40.30
69411;BME280;56604;48.652;9.194;2023-08-12T10:55:27;96413.06;;;34.00;39.85
69411;BME280;56604;48.652;9.194;2023-08-12T10:57:54;96412.16;;;34.80;38.61
69411;BME280;56604;48.652;9.194;2023-08-12T11:00:23;96410.44;;;33.82;37.20
69411;BME280;56604;48.652;9.194;2023-08-12T11:02:50;96409.09;;;33.09;39.64
69411;BME280;56604;48.652;9.194;2023-08-12T11:05:17;96402.88;;;32.59;39.28
69411;BME280;56604;48.652;9.194;2023-08-12T11:07:47;96406.34;;;32.99;40.00
69411;BME280;56604;48.652;9.194;2023-08-12T11:10:24;96402.50;;;32.46;41.69
69411;BME280;56604;48.652;9.194;2023-08-12T11:12:54;96403.63;;;32.16;42.17
69411;BME280;56604;48.652;9.194;2023-08-12T11:15:31;96400.00;;;31.00;43.21
69411;BME280;56604;48.652;9.194;2023-08-12T11:17:59;96394.56;;;31.76;42.33
69411;BME280;56604;48.652;9.194;2023-08-12T11:20:27;96390.41;;;32.25;41.25
69411;BME280;56604;48.652;9.194;2023-08-12T11:22:54;96392.00;;;32.69;41.36
69411;BME280;56604;48.652;9.194;2023-08-12T11:25:19;96396.84;;;31.67;42.79
69411;BME280;56604;48.652;9.194;2023-08-12T11:27:46;96385.41;;;32.63;41.11
69411;BME280;56604;48.652;9.194;2023-08-12T11:30:21;96393.13;;;32.08;43.08
69411;BME280;56604;48.652;9.194;2023-08-12T11:32:49;96382.66;;;32.42;42.73
69411;BME280;56604;48.652;9.194;2023-08-12T11:35:17;96377.22;;;32.28;41.94
69411;BME280;56604;48.652;9.194;2023-08-12T11:37:45;96374.28;;;31.56;42.99
69411;BME280;56604;48.652;9.194;2023-08-12T11:40:12;96372.09;;;32.01;41.73
69411;BME280;56604;48.652;9.194;2023-08-12T11:42:43;96364.09;;;31.39;42.49
69411;BME280;56604;48.652;9.194;2023-08-12T11:45:10;96369.19;;;31.44;43.29
69411;BME280;56604;48.652;9.194;2023-08-12T11:47:37;96360.91;;;31.22;42.24
69411;BME280;56604;48.652;9.194;2023-08-12T11:50:03;96361.16;;;30.96;43.49
69411;BME280;56604;48.652;9.194;2023-08-12T11:52:29;96345.16;;;30.80;43.50
69411;BME280;56604;48.652;9.194;2023-08-12T11:54:55;96337.22;;;31.19;43.02
69411;BME280;56604;48.652;9.194;2023-08-12T11:57:22;96336.28;;;31.77;42.67
69411;BME280;56604;48.652;9.194;2023-08-12T11:59:48;96333.56;;;31.85;42.23
69411;BME280;56604;48.652;9.194;2023-08-12T12:02:13;96348.00;;;32.07;42.88
69411;BME280;56604;48.652;9.194;2023-08-12T12:04:41;96355.47;;;32.56;41.78
69411;BME280;56604;48.652;9.194;2023-08-12T12:07:20;96360.47;;;32.29;42.40
69411;BME280;56604;48.652;9.194;2023-08-12T12:09:52;96370.00;;;31.58;41.69
69411;BME280;56604;48.652;9.194;2023-08-12T12:12:22;96377.75;;;31.49;41.03
69411;BME280;56604;48.652;9.194;2023-08-12T12:14:51;96388.38;;;31.03;42.16
69411;BME280;56604;48.652;9.194;2023-08-12T12:17:17;96396.91;;;31.05;42.38
69411;BME280;56604;48.652;9.194;2023-08-12T12:19:43;96401.38;;;30.79;42.72
69411;BME280;56604;48.652;9.194;2023-08-12T12:22:08;96404.47;;;30.78;42.09
69411;BME280;56604;48.652;9.194;2023-08-12T12:24:44;96400.66;;;30.41;44.48
69411;BME280;56604;48.652;9.194;2023-08-12T12:27:13;96401.75;;;30.33;44.35
69411;BME280;56604;48.652;9.194;2023-08-12T12:29:38;96406.09;;;30.41;43.94
69411;BME280;56604;48.652;9.194;2023-08-12T12:32:04;96408.06;;;30.44;44.23
69411;BME280;56604;48.652;9.194;2023-08-12T12:34:29;96426.69;;;30.09;45.21
69411;BME280;56604;48.652;9.194;2023-08-12T12:36:55;96427.63;;;29.59;48.41
69411;BME280;56604;48.652;9.194;2023-08-12T12:39:20;96452.91;;;29.10;50.40
69411;BME280;56604;48.652;9.194;2023-08-12T12:41:48;96485.31;;;28.18;54.19
69411;BME280;56604;48.652;9.194;2023-08-12T12:44:13;96512.47;;;27.16;61.82
69411;BME280;56604;48.652;9.194;2023-08-12T12:46:38;96512.09;;;25.86;70.97
69411;BME280;56604;48.652;9.194;2023-08-12T12:49:04;96516.44;;;24.67;76.01
69411;BME280;56604;48.652;9.194;2023-08-12T12:51:29;96532.25;;;24.36;79.19
69411;BME280;56604;48.652;9.194;2023-08-12T12:53:54;96522.41;;;24.40;78.98
69411;BME280;56604;48.652;9.194;2023-08-12T12:56:20;96503.75;;;24.56;80.65
69411;BME280;56604;48.652;9.194;2023-08-12T12:58:45;96517.63;;;24.24;81.16